Flight Track Log - Related Links

Times and Time Zones

All times are in EDT time to prevent confusion due to time zone crossing. See the F-HPJG flight status page for this flight to view local times or setup timezone preferences in your user account.

Time Position Orientation Groundspeed Altitude Reporting Facility
EDT Latitude Longitude Course Direction KTS MPH feet Rate Location/Type
Sun 07:13:42 PM 33.9390 -118.5020 263° West 203 234 2,000  Level FlightAware ADS-B
Sun 07:13:57 PM 33.9380 -118.5150 265° West 221 254 2,200 1,350 Climbing FlightAware ADS-B
Sun 07:14:22 PM 33.9340 -118.5480 262° West 243 280 2,900 2,520 Climbing FlightAware ADS-B
Sun 07:14:47 PM 33.9310 -118.5820 264° West 239 275 4,300 3,467 Climbing FlightAware ADS-B
Sun 07:15:07 PM 33.9210 -118.6070 244° Southwest 235 270 5,500 2,900 Climbing FlightAware ADS-B
Sun 07:15:47 PM 33.8720 -118.5960 169° South 276 318 7,200 2,538 Climbing FlightAware ADS-B
Sun 07:15:59 PM 33.8680 -118.5780 105° East 276 318 7,700 2,267 Climbing FlightAware ADS-B
Sun 07:16:32 PM 33.8860 -118.5310 65° Northeast 282 325 8,900 2,172 Climbing FlightAware ADS-B
Sun 07:16:57 PM 33.9040 -118.4970 57° Northeast 290 334 9,800 1,846 Climbing FlightAware ADS-B
Sun 07:17:37 PM 33.9310 -118.4370 62° Northeast 318 366 10,900 1,814 Climbing FlightAware ADS-B
Sun 07:18:23 PM 33.9690 -118.3660 57° Northeast 335 386 12,400 1,953 Climbing FlightAware ADS-B
Sun 07:19:03 PM 34.0050 -118.3050 55° Northeast 352 405 13,700 1,463 Climbing FlightAware ADS-B
Sun 07:19:45 PM 34.0470 -118.2330 55° Northeast 393 452 14,400 886 Climbing FlightAware ADS-B
Sun 07:20:31 PM 34.0970 -118.1430 56° Northeast 433 498 15,000 1,256 Climbing FlightAware ADS-B
Sun 07:21:11 PM 34.1450 -118.0680 52° Northeast 444 511 16,200 2,071 Climbing FlightAware ADS-B
Sun 07:21:55 PM 34.2040 -117.9820 50° Northeast 450 518 17,900 2,093 Climbing FlightAware ADS-B
Sun 07:22:37 PM 34.2600 -117.9020 50° Northeast 457 526 19,200 1,735 Climbing FlightAware ADS-B
Sun 07:23:18 PM 34.3160 -117.8200 50° Northeast 471 542 20,300 1,630 Climbing FlightAware ADS-B
Sun 07:23:58 PM 34.3720 -117.7390 50° Northeast 478 550 21,400 1,714 Climbing FlightAware ADS-B
Sun 07:24:42 PM 34.4360 -117.6460 50° Northeast 486 559 22,700 1,605 Climbing FlightAware ADS-B
Sun 07:25:24 PM 34.4960 -117.5590 50° Northeast 495 570 23,700 1,463 Climbing FlightAware ADS-B
Sun 07:26:04 PM 34.5540 -117.4730 51° Northeast 503 579 24,700 1,390 Climbing FlightAware ADS-B
Sun 07:26:46 PM 34.6180 -117.3790 50° Northeast 512 589 25,600 1,518 Climbing FlightAware ADS-B
Sun 07:27:27 PM 34.6770 -117.2920 50° Northeast 511 588 26,800 1,429 Climbing FlightAware ADS-B
Sun 07:28:10 PM 34.7450 -117.1920 50° Northeast 520 598 27,600 821 Climbing FlightAware ADS-B
Sun 07:29:02 PM 34.8100 -117.0960 50° Northeast 521 600 28,100 964 Climbing FlightAware ADS-B
Sun 07:30:02 PM 34.9110 -116.9470 50° Northeast 530 610 29,400 796 Climbing FlightAware ADS-B
Sun 07:30:40 PM 34.9620 -116.8730 50° Northeast 530 610 29,400  Level FlightAware ADS-B
Sun 07:31:28 PM 35.0260 -116.7800 50° Northeast 530 610 29,400 2,786 Level FlightAware ADS-B
Sun 07:32:04 PM 35.1030 -116.6580 52° Northeast 513 590 33,300 2,930 Climbing FlightAware ADS-B
Sun 07:32:54 PM 35.1710 -116.5590 50° Northeast 511 588 33,600 205 Climbing FlightAware ADS-B
Sun 07:33:32 PM 35.2200 -116.4870 50° Northeast 511 588 33,600 2,077 Level FlightAware ADS-B
Sun 07:34:12 PM 35.2940 -116.3700 52° Northeast 492 566 36,300 2,114 Climbing FlightAware ADS-B
Sun 07:35:00 PM 35.3630 -116.2660 51° Northeast 496 571 36,700 337 Climbing FlightAware ADS-B
Sun 07:35:41 PM 35.4200 -116.1790 51° Northeast 505 581 36,800 74 Climbing FlightAware ADS-B
Sun 07:36:21 PM 35.4740 -116.0960 51° Northeast 507 583 36,800 124 Level FlightAware ADS-B
Sun 07:37:18 PM 35.5550 -115.9700 52° Northeast 515 593 37,000 130 Climbing FlightAware ADS-B
Sun 07:37:53 PM 35.6120 -115.8730 54° Northeast 516 594 37,000  Level FlightAware ADS-B
Sun 07:38:42 PM 35.6780 -115.7650 53° Northeast 518 596 37,000  Level FlightAware ADS-B
Sun 07:39:20 PM 35.7390 -115.6660 53° Northeast 517 595 37,000  Level FlightAware ADS-B
Sun 07:40:04 PM 35.8010 -115.5630 53° Northeast 516 594 37,000  Level FlightAware ADS-B
Sun 07:40:46 PM 35.8600 -115.4660 53° Northeast 514 592 37,000  Level FlightAware ADS-B
Sun 07:41:30 PM 35.9230 -115.3630 53° Northeast 514 592 37,000  Level FlightAware ADS-B
Sun 07:42:12 PM 35.9840 -115.2610 54° Northeast 514 592 37,000  Level FlightAware ADS-B
Sun 07:42:53 PM 36.0410 -115.1660 53° Northeast 514 592 37,000  Level FlightAware ADS-B
Sun 07:43:34 PM 36.1000 -115.0670 54° Northeast 517 595 37,000  Level FlightAware ADS-B
Sun 07:44:16 PM 36.1600 -114.9670 53° Northeast 521 600 37,000  Level FlightAware ADS-B
Sun 07:45:00 PM 36.2220 -114.8630 54° Northeast 522 601 37,000  Level FlightAware ADS-B
Sun 07:45:38 PM 36.2780 -114.7700 53° Northeast 523 602 37,000  Level FlightAware ADS-B
Sun 07:46:24 PM 36.3430 -114.6600 54° Northeast 524 603 37,000  Level FlightAware ADS-B
Sun 07:47:04 PM 36.4040 -114.5750 48° Northeast 525 604 37,000  Level FlightAware ADS-B
Sun 07:47:49 PM 36.4800 -114.4700 48° Northeast 525 604 37,000  Level FlightAware ADS-B
Sun 07:48:30 PM 36.5460 -114.3790 48° Northeast 521 600 37,000  Level FlightAware ADS-B
Sun 07:49:12 PM 36.6150 -114.2830 48° Northeast 521 600 37,000  Level FlightAware ADS-B
Sun 07:49:52 PM 36.6790 -114.1940 48° Northeast 519 597 37,000  Level FlightAware ADS-B
Sun 07:50:32 PM 36.7440 -114.1050 48° Northeast 519 597 37,000  Level FlightAware ADS-B
Sun 07:51:20 PM 36.8200 -113.9990 48° Northeast 522 601 37,000  Level FlightAware ADS-B
Sun 07:52:00 PM 36.8840 -113.9100 48° Northeast 522 601 37,000  Level FlightAware ADS-B
Sun 07:52:40 PM 36.9500 -113.8170 48° Northeast 522 601 37,000  Level FlightAware ADS-B
Sun 07:53:23 PM 37.0150 -113.7250 48° Northeast 521 600 37,000  Level FlightAware ADS-B
Sun 07:54:06 PM 37.0850 -113.6270 48° Northeast 521 600 37,000  Level FlightAware ADS-B
Sun 07:54:47 PM 37.1450 -113.5420 48° Northeast 522 601 37,000  Level FlightAware ADS-B
Sun 07:55:25 PM 37.1980 -113.4690 48° Northeast 522 601 37,000  Level FlightAware ADS-B
Sun 07:56:12 PM 37.2620 -113.3790 48° Northeast 522 601 37,000  Level FlightAware ADS-B
Sun 07:56:48 PM 37.3120 -113.3100 48° Northeast 522 601 37,000  Level FlightAware ADS-B
Sun 07:57:35 PM 37.3760 -113.2200 48° Northeast 522 601 37,000  Level FlightAware ADS-B
Sun 07:58:13 PM 37.4280 -113.1470 48° Northeast 522 601 37,000  Level FlightAware ADS-B
Sun 07:59:16 PM 37.5150 -113.0260 48° Northeast 522 601 37,000  Level FlightAware ADS-B
Sun 07:59:53 PM 37.5660 -112.9550 48° Northeast 522 601 37,000  Level FlightAware ADS-B
Sun 08:00:39 PM 37.6290 -112.8660 48° Northeast 522 601 37,000  Level FlightAware ADS-B
Sun 08:01:15 PM 37.6780 -112.7970 48° Northeast 522 601 37,000  Level FlightAware ADS-B
Sun 08:02:03 PM 37.7440 -112.7040 48° Northeast 522 601 37,000  Level FlightAware ADS-B
Sun 08:02:40 PM 37.7950 -112.6330 48° Northeast 522 601 37,000  Level FlightAware ADS-B
Sun 08:03:43 PM 37.8820 -112.5110 48° Northeast 522 601 37,000  Level FlightAware ADS-B
Sun 08:04:17 PM 37.9280 -112.4460 48° Northeast 522 601 37,000  Level FlightAware ADS-B
Sun 08:05:18 PM 38.1520 -112.0850 52° Northeast 517 595 37,000  Level FlightAware ADS-B
Sun 08:06:00 PM 38.2160 -111.9910 49° Northeast 519 597 37,000  Level FlightAware ADS-B
Sun 08:06:37 PM 38.2650 -111.9180 49° Northeast 519 597 37,000  Level FlightAware ADS-B
Sun 08:07:25 PM 38.3290 -111.8240 49° Northeast 519 597 37,000  Level FlightAware ADS-B
Sun 08:08:01 PM 38.3780 -111.7530 49° Northeast 519 597 37,000  Level FlightAware ADS-B
Sun 08:08:50 PM 38.4430 -111.6570 49° Northeast 519 597 37,000  Level FlightAware ADS-B
Sun 08:09:26 PM 38.4910 -111.5860 49° Northeast 519 597 37,000  Level FlightAware ADS-B
Sun 08:10:12 PM 38.5530 -111.4950 49° Northeast 519 597 37,000  Level FlightAware ADS-B
Sun 08:10:46 PM 38.5980 -111.4280 49° Northeast 519 597 37,000  Level FlightAware ADS-B
Sun 08:11:35 PM 38.6640 -111.3320 49° Northeast 519 597 37,000  Level FlightAware ADS-B
Sun 08:12:32 PM 38.8190 -111.0830 51° Northeast 518 596 37,000  Level FlightAware ADS-B
Sun 08:13:10 PM 38.8850 -110.9810 50° Northeast 519 597 37,000  Level FlightAware ADS-B
Sun 08:14:25 PM 38.9370 -110.9010 50° Northeast 519 597 37,000  Level FlightAware ADS-B
Sun 08:14:59 PM 38.8850 -110.9810 230° Southwest 522 601 37,000  Level FlightAware ADS-B
Sun 08:15:48 PM 38.9500 -110.8820 50° Northeast 522 601 37,000  Level FlightAware ADS-B
Sun 08:16:26 PM 39.1870 -110.5150 50° Northeast 519 597 37,000  Level FlightAware ADS-B
Sun 08:17:11 PM 39.2550 -110.4090 50° Northeast 516 594 37,000  Level FlightAware ADS-B
Sun 08:17:51 PM 39.3170 -110.3120 50° Northeast 514 592 37,000  Level FlightAware ADS-B
Sun 08:18:31 PM 39.3740 -110.2230 50° Northeast 515 593 37,000  Level FlightAware ADS-B
Sun 08:19:18 PM 39.4480 -110.1060 51° Northeast 515 593 37,000  Level FlightAware ADS-B
Sun 08:19:59 PM 39.5100 -110.0080 51° Northeast 513 590 37,000  Level FlightAware ADS-B
Sun 08:20:40 PM 39.5710 -109.9120 50° Northeast 513 590 37,000  Level FlightAware ADS-B
Sun 08:21:22 PM 39.6340 -109.8120 51° Northeast 513 590 37,000  Level FlightAware ADS-B
Sun 08:22:08 PM 39.7040 -109.7010 51° Northeast 511 588 37,000  Level FlightAware ADS-B
Sun 08:22:50 PM 39.7660 -109.6020 51° Northeast 510 587 37,000  Level FlightAware ADS-B
Sun 08:23:26 PM 39.8190 -109.5160 51° Northeast 510 587 37,000  Level FlightAware ADS-B
Sun 08:24:11 PM 39.8870 -109.4060 51° Northeast 511 588 37,000  Level FlightAware ADS-B
Sun 08:24:50 PM 39.9440 -109.3140 51° Northeast 510 587 37,000  Level FlightAware ADS-B
Sun 08:25:32 PM 40.0060 -109.2150 51° Northeast 511 588 37,000  Level FlightAware ADS-B
Sun 08:26:17 PM 40.0730 -109.1050 51° Northeast 507 583 37,000  Level FlightAware ADS-B
Sun 08:26:48 PM 40.1170 -109.0340 51° Northeast 508 585 37,000  Level FlightAware ADS-B
Sun 08:27:28 PM 40.1760 -108.9380 51° Northeast 508 585 37,000  Level FlightAware ADS-B
Sun 08:28:13 PM 40.2430 -108.8280 51° Northeast 508 585 37,000  Level FlightAware ADS-B
Sun 08:28:53 PM 40.3010 -108.7330 51° Northeast 509 586 37,000  Level FlightAware ADS-B
Sun 08:29:34 PM 40.3610 -108.6350 51° Northeast 510 587 37,000  Level FlightAware ADS-B
Sun 08:30:18 PM 40.4250 -108.5280 52° Northeast 511 588 37,000  Level FlightAware ADS-B
Sun 08:30:52 PM 40.4760 -108.4440 51° Northeast 511 588 37,000  Level FlightAware ADS-B
Sun 08:31:37 PM 40.5420 -108.3340 52° Northeast 511 588 37,000  Level FlightAware ADS-B
Sun 08:32:20 PM 40.6040 -108.2300 52° Northeast 512 589 37,000  Level FlightAware ADS-B
Sun 08:33:05 PM 40.6700 -108.1180 52° Northeast 516 594 37,000  Level FlightAware ADS-B
Sun 08:33:46 PM 40.7300 -108.0180 52° Northeast 516 594 37,000  Level FlightAware ADS-B
Sun 08:34:30 PM 40.7950 -107.9090 52° Northeast 517 595 37,000  Level FlightAware ADS-B
Sun 08:35:09 PM 40.8530 -107.8100 52° Northeast 516 594 37,000  Level FlightAware ADS-B
Sun 08:36:04 PM 40.9210 -107.6950 52° Northeast 516 594 37,000  Level FlightAware ADS-B
Sun 08:36:48 PM 40.9970 -107.5650 52° Northeast 520 598 37,000  Level FlightAware ADS-B
Sun 08:37:27 PM 41.0560 -107.4640 52° Northeast 519 597 37,000  Level FlightAware ADS-B
Sun 08:38:10 PM 41.1170 -107.3590 52° Northeast 519 597 37,000  Level FlightAware ADS-B
Sun 08:38:43 PM 41.1670 -107.2730 52° Northeast 520 598 37,000  Level FlightAware ADS-B
Sun 08:39:21 PM 41.2220 -107.1780 52° Northeast 520 598 37,000  Level FlightAware ADS-B
Sun 08:40:21 PM 41.3090 -107.0260 53° Northeast 518 596 37,000  Level FlightAware ADS-B
Sun 08:41:00 PM 41.3650 -106.9290 52° Northeast 518 596 37,000  Level FlightAware ADS-B
Sun 08:41:46 PM 41.4320 -106.8120 53° Northeast 520 598 37,000  Level FlightAware ADS-B
Sun 08:42:45 PM 41.5120 -106.6720 53° Northeast 518 596 37,000  Level FlightAware ADS-B
Sun 08:43:21 PM 41.5580 -106.5950 51° Northeast 518 596 37,000  Level FlightAware ADS-B
Sun 08:44:08 PM 41.6170 -106.4940 52° Northeast 518 596 37,000  Level FlightAware ADS-B
Sun 08:44:48 PM 41.6940 -106.3480 55° Northeast 522 601 37,000  Level FlightAware ADS-B
Sun 08:45:42 PM 41.7740 -106.2060 53° Northeast 524 603 37,000  Level FlightAware ADS-B
Sun 08:46:28 PM 41.8400 -106.0880 53° Northeast 523 602 37,000  Level FlightAware ADS-B
Sun 08:47:02 PM 41.8890 -106.0010 53° Northeast 524 603 37,000  Level FlightAware ADS-B
Sun 08:47:48 PM 41.9560 -105.8800 53° Northeast 528 608 37,000  Level FlightAware ADS-B
Sun 08:48:49 PM 42.0350 -105.7370 53° Northeast 529 609 37,000  Level FlightAware ADS-B
Sun 08:49:25 PM 42.0800 -105.6570 53° Northeast 529 609 37,000  Level FlightAware ADS-B
Sun 08:50:01 PM 42.1250 -105.5760 53° Northeast 529 609 37,000  Level FlightAware ADS-B
Sun 08:50:52 PM 42.2230 -105.3930 54° Northeast 520 598 37,000  Level FlightAware ADS-B
Sun 08:51:28 PM 42.2740 -105.3000 53° Northeast 518 596 37,000  Level FlightAware ADS-B
Sun 08:52:06 PM 42.3280 -105.2000 54° Northeast 519 597 37,000  Level FlightAware ADS-B
Sun 08:52:46 PM 42.3760 -105.1110 54° Northeast 519 597 37,000  Level FlightAware ADS-B
Sun 08:53:22 PM 42.4190 -105.0300 54° Northeast 519 597 37,000  Level FlightAware ADS-B
Sun 08:53:59 PM 42.4630 -104.9480 54° Northeast 519 597 37,000  Level FlightAware ADS-B
Sun 08:54:45 PM 42.5180 -104.8450 54° Northeast 519 597 37,000  Level FlightAware ADS-B
Sun 08:55:33 PM 42.5760 -104.7370 54° Northeast 519 597 37,000  Level FlightAware ADS-B
Sun 08:55:57 PM 42.6050 -104.6830 54° Northeast 519 597 37,000  Level FlightAware ADS-B
Sun 08:56:34 PM 42.6490 -104.6000 54° Northeast 519 597 37,000  Level FlightAware ADS-B
Sun 08:57:12 PM 42.6950 -104.5150 54° Northeast 519 597 37,000  Level FlightAware ADS-B
Sun 08:57:48 PM 42.7380 -104.4340 54° Northeast 519 597 37,000  Level FlightAware ADS-B
Sun 08:58:36 PM 42.7950 -104.3260 54° Northeast 519 597 37,000  Level FlightAware ADS-B
Sun 08:59:12 PM 42.8390 -104.2450 53° Northeast 519 597 37,000  Level FlightAware ADS-B
Sun 08:59:46 PM 42.8790 -104.1680 55° Northeast 519 597 37,000  Level FlightAware ADS-B
Sun 09:00:34 PM 42.9370 -104.0600 54° Northeast 519 597 37,000  Level FlightAware ADS-B
Sun 09:01:13 PM 42.9840 -103.9720 54° Northeast 519 597 37,000  Level FlightAware ADS-B
Sun 09:01:49 PM 43.0270 -103.8910 54° Northeast 519 597 37,000  Level FlightAware ADS-B
Sun 09:02:20 PM 43.1944 -103.5536 54° Northeast 527 606 37,000  Level Denver Center
Sun 09:03:22 PM 43.2756 -103.3944 55° Northeast 532 612 37,000  Level Denver Center
Sun 09:04:24 PM 43.3561 -103.2347 55° Northeast 532 612 37,000  Level Denver Center
Sun 09:05:25 PM 43.4511 -103.0489 55° Northeast 532 612 37,000  Level Denver Center
Sun 09:06:27 PM 43.5303 -102.8869 56° Northeast 532 612 37,000  Level Denver Center
Sun 09:07:29 PM 43.6217 -102.7031 55° Northeast 525 604 37,000  Level Denver Center
Sun 09:08:30 PM 43.7008 -102.5442 55° Northeast 524 603 37,000  Level Denver Center
Sun 09:09:32 PM 43.7939 -102.3567 55° Northeast 530 610 37,000  Level Denver Center
Sun 09:10:33 PM 43.8731 -102.1958 56° Northeast 531 611 37,000  Level Denver Center
Sun 09:11:47 PM 43.9472 -102.0372 57° Northeast 536 617 37,000  Level Denver Center
Sun 09:12:49 PM 44.0636 -101.7964 56° Northeast 538 619 37,000  Level Denver Center
Sun 09:13:51 PM 44.1456 -101.6253 56° Northeast 534 615 37,000  Level Denver Center
Sun 09:15:04 PM 44.2272 -101.4539 56° Northeast 531 611 37,000  Level Denver Center
Sun 09:16:06 PM 44.3256 -101.2486 56° Northeast 531 611 37,000  Level Denver Center
Sun 09:17:08 PM 44.4072 -101.0761 56° Northeast 532 612 37,000  Level Denver Center
Sun 09:18:10 PM 44.4878 -100.9031 57° Northeast 532 612 37,000  Level Denver Center
Sun 09:19:31 PM 44.6050 -100.6586 56° Northeast 536 617 37,000  Level Minneapolis Center
Sun 09:20:32 PM 44.6861 -100.4831 57° Northeast 538 619 37,000  Level Minneapolis Center
Sun 09:21:34 PM 44.7672 -100.3067 57° Northeast 539 620 37,000  Level Minneapolis Center
Sun 09:22:36 PM 44.8478 -100.1300 57° Northeast 539 620 37,000  Level Minneapolis Center
Sun 09:23:38 PM 44.9428 -99.9203 57° Northeast 539 620 37,000  Level Minneapolis Center
Sun 09:24:39 PM 45.0200 -99.7483 58° Northeast 539 620 37,000  Level Minneapolis Center
Sun 09:25:41 PM 45.0994 -99.5708 58° Northeast 542 624 37,000  Level Minneapolis Center
Sun 09:26:43 PM 45.1794 -99.3911 58° Northeast 542 624 37,000  Level Minneapolis Center
Sun 09:27:45 PM 45.2750 -99.1744 58° Northeast 542 624 37,000  Level Minneapolis Center
Sun 09:28:47 PM 45.3544 -98.9936 58° Northeast 540 621 37,000  Level Minneapolis Center
Sun 09:29:48 PM 45.4333 -98.8125 58° Northeast 538 619 37,000  Level Minneapolis Center
Sun 09:30:50 PM 45.5117 -98.6311 58° Northeast 540 621 37,000  Level Minneapolis Center
Sun 09:31:52 PM 45.5903 -98.4486 58° Northeast 543 625 37,000  Level Minneapolis Center
Sun 09:32:54 PM 45.6683 -98.2658 59° Northeast 539 620 37,000  Level Minneapolis Center
Sun 09:33:56 PM 45.7469 -98.0806 59° Northeast 538 619 37,000  Level Minneapolis Center
Sun 09:34:57 PM 45.8247 -97.8961 59° Northeast 541 623 37,000  Level Minneapolis Center
Sun 09:35:59 PM 45.9083 -97.6964 59° Northeast 539 620 37,000  Level Minneapolis Center
Sun 09:37:01 PM 45.9847 -97.5125 59° Northeast 539 620 37,000  Level Minneapolis Center
Sun 09:38:02 PM 46.0606 -97.3286 59° Northeast 537 618 37,000  Level Minneapolis Center
Sun 09:39:04 PM 46.1514 -97.1075 59° Northeast 539 620 37,000  Level Minneapolis Center
Sun 09:40:06 PM 46.2269 -96.9214 60° Northeast 542 624 37,000  Level Minneapolis Center
Sun 09:41:07 PM 46.3050 -96.7292 60° Northeast 541 623 37,000  Level Minneapolis Center
Sun 09:42:09 PM 46.3778 -96.5478 60° Northeast 542 624 37,000  Level Minneapolis Center
Sun 09:43:10 PM 46.4378 -96.3969 60° Northeast 544 626 37,000  Level Minneapolis Center
Sun 09:44:12 PM 46.5281 -96.1697 60° Northeast 545 627 37,000  Level Minneapolis Center
Sun 09:45:14 PM 46.5875 -96.0183 60° Northeast 542 624 37,000  Level Minneapolis Center
Sun 09:46:15 PM 46.6914 -95.7522 60° Northeast 544 626 37,000  Level Minneapolis Center
Sun 09:51:32 PM 47.0840 -94.7220 60° Northeast 556 640 37,000  Level FlightAware ADS-B
Sun 09:52:16 PM 47.1390 -94.5750 61° Northeast 558 642 37,000  Level FlightAware ADS-B
Sun 09:52:50 PM 47.1800 -94.4640 61° Northeast 560 644 37,000  Level FlightAware ADS-B
Sun 09:53:36 PM 47.2380 -94.3080 61° Northeast 561 646 37,000  Level FlightAware ADS-B
Sun 09:54:37 PM 47.3060 -94.1230 61° Northeast 560 644 37,000  Level FlightAware ADS-B
Sun 09:55:14 PM 47.3520 -93.9990 61° Northeast 559 643 37,000  Level FlightAware ADS-B
Sun 09:55:56 PM 47.4100 -93.8360 62° Northeast 558 642 37,000  Level FlightAware ADS-B
Sun 09:56:42 PM 47.4650 -93.6850 62° Northeast 559 643 37,000  Level FlightAware ADS-B
Sun 09:57:22 PM 47.5140 -93.5490 62° Northeast 558 642 37,000  Level FlightAware ADS-B
Sun 09:58:03 PM 47.5620 -93.4130 62° Northeast 558 642 37,000  Level FlightAware ADS-B
Sun 09:58:44 PM 47.6120 -93.2730 62° Northeast 556 640 37,000  Level FlightAware ADS-B
Sun 09:59:26 PM 47.6620 -93.1290 63° Northeast 557 641 37,000  Level FlightAware ADS-B
Sun 10:00:11 PM 47.7150 -92.9800 62° Northeast 558 642 37,000  Level FlightAware ADS-B
Sun 10:00:51 PM 47.7630 -92.8420 63° Northeast 557 641 37,000  Level FlightAware ADS-B
Sun 10:01:35 PM 47.8150 -92.6930 62° Northeast 556 640 37,000  Level FlightAware ADS-B
Sun 10:02:17 PM 47.8650 -92.5490 63° Northeast 555 639 37,000  Level FlightAware ADS-B
Sun 10:02:57 PM 47.9110 -92.4150 63° Northeast 556 640 37,000  Level FlightAware ADS-B
Sun 10:03:41 PM 47.9630 -92.2620 63° Northeast 558 642 37,000  Level FlightAware ADS-B
Sun 10:04:21 PM 48.0080 -92.1280 63° Northeast 556 640 37,000  Level FlightAware ADS-B
Sun 10:05:05 PM 48.0590 -91.9790 63° Northeast 552 635 37,000  Level FlightAware ADS-B
Sun 10:05:45 PM 48.1050 -91.8400 64° Northeast 547 629 37,000  Level FlightAware ADS-B
Sun 10:06:28 PM 48.1530 -91.6980 63° Northeast 543 625 37,000  Level FlightAware ADS-B
Sun 10:07:09 PM 48.1990 -91.5590 64° Northeast 542 624 37,000  Level FlightAware ADS-B
Sun 10:07:53 PM 48.2480 -91.4110 64° Northeast 539 620 37,000  Level FlightAware ADS-B
Sun 10:08:31 PM 48.2890 -91.2870 64° Northeast 537 618 37,000  Level FlightAware ADS-B
Sun 10:09:19 PM 48.3360 -91.1480 63° Northeast 537 618 37,000  Level FlightAware ADS-B
Sun 10:09:58 PM 48.3730 -91.0370 63° Northeast 537 618 37,000  Level FlightAware ADS-B
Sun 10:10:34 PM 48.4070 -90.9350 63° Northeast 537 618 37,000  Level FlightAware ADS-B
Sun 10:11:29 PM 48.4800 -90.6960 65° Northeast 526 605 37,000  Level FlightAware ADS-B
Sun 10:12:09 PM 48.5200 -90.5710 64° Northeast 521 600 37,000  Level FlightAware ADS-B
Sun 10:12:55 PM 48.5700 -90.4150 64° Northeast 519 597 37,000  Level FlightAware ADS-B
Sun 10:13:35 PM 48.6110 -90.2840 65° Northeast 517 595 37,000  Level FlightAware ADS-B
Sun 10:14:33 PM 48.6660 -90.1120 64° Northeast 514 592 37,000  Level FlightAware ADS-B
Sun 10:15:10 PM 48.6990 -90.0100 64° Northeast 514 592 37,000  Level FlightAware ADS-B
Sun 10:15:58 PM 48.7410 -89.8780 64° Northeast 514 592 37,000  Level FlightAware ADS-B
Sun 10:16:34 PM 48.7730 -89.7790 64° Northeast 514 592 37,000  Level FlightAware ADS-B
Sun 10:17:22 PM 48.8150 -89.6470 64° Northeast 514 592 37,000  Level FlightAware ADS-B
Sun 10:17:58 PM 48.8470 -89.5470 64° Northeast 514 592 37,000  Level FlightAware ADS-B
Sun 10:18:46 PM 48.8900 -89.4150 64° Northeast 514 592 37,000  Level FlightAware ADS-B
Sun 10:19:20 PM 48.9200 -89.3210 64° Northeast 514 592 37,000  Level FlightAware ADS-B
Sun 10:20:08 PM 48.9630 -89.1880 64° Northeast 514 592 37,000  Level FlightAware ADS-B
Sun 10:20:45 PM 48.9950 -89.0850 65° Northeast 514 592 37,000  Level FlightAware ADS-B
Sun 10:21:31 PM 49.0360 -88.9580 64° Northeast 514 592 37,000  Level FlightAware ADS-B
Sun 10:22:32 PM 49.0900 -88.7890 64° Northeast 514 592 37,000  Level FlightAware ADS-B
Sun 10:23:12 PM 49.1250 -88.6780 64° Northeast 514 592 37,000  Level FlightAware ADS-B
Sun 10:23:36 PM 49.1470 -88.6110 63° Northeast 514 592 37,000  Level FlightAware ADS-B
Sun 10:24:31 PM 49.2500 -88.0833 63° Northeast 520 598 37,000  Level Winnipeg Center
Sun 10:25:31 PM 49.3167 -87.8667 65° Northeast 510 587 37,000  Level Winnipeg Center
Sun 10:26:31 PM 49.3667 -87.6833 67° East 510 587 37,000  Level Winnipeg Center
Sun 10:27:31 PM 49.4167 -87.4667 70° East 510 587 37,000  Level Winnipeg Center
Sun 10:28:31 PM 49.4667 -87.2667 69° East 510 587 37,000  Level Winnipeg Center
Sun 10:29:31 PM 49.5333 -87.0833 61° Northeast 510 587 37,000  Level Winnipeg Center
Sun 10:30:31 PM 49.5833 -86.8500 72° East 510 587 37,000 350 Level Winnipeg Center
Sun 10:31:31 PM 49.6333 -86.6667 67° East 520 598 37,700 500 Climbing Winnipeg Center
Sun 10:32:31 PM 49.7000 -86.4667 63° Northeast 520 598 38,000 150 Climbing Winnipeg Center
Sun 10:33:31 PM 49.7333 -86.2833 74° East 510 587 38,000  Level Winnipeg Center
Sun 10:34:31 PM 49.8000 -86.0500 66° East 510 587 38,000  Level Winnipeg Center
Sun 10:35:31 PM 49.8500 -85.8500 69° East 520 598 38,000  Level Winnipeg Center
Sun 10:36:31 PM 49.9167 -85.6333 64° Northeast 520 598 38,000  Level Winnipeg Center
Sun 10:37:31 PM 49.9667 -85.4333 69° East 520 598 38,000  Level Winnipeg Center
Sun 10:38:31 PM 50.0167 -85.2167 70° East 520 598 38,000  Level Winnipeg Center
Sun 10:39:31 PM 50.0667 -85.0167 69° East 520 598 38,000  Level Winnipeg Center
Sun 10:40:31 PM 50.1333 -84.7833 66° East 530 610 38,000  Level Winnipeg Center
Sun 10:41:31 PM 50.1833 -84.6000 67° East 530 610 38,000  Level Winnipeg Center
Sun 10:42:31 PM 50.2167 -84.3667 77° East 530 610 38,000  Level Winnipeg Center
Sun 10:43:31 PM 50.2833 -84.1500 64° Northeast 530 610 38,000  Level Winnipeg Center
Sun 10:44:31 PM 50.3167 -83.9500 75° East 520 598 38,000  Level Winnipeg Center
Sun 10:45:31 PM 50.3833 -83.7167 66° East 520 598 38,000  Level Winnipeg Center
Sun 10:46:31 PM 50.4167 -83.5167 75° East 520 598 38,000  Level Winnipeg Center
Sun 10:47:31 PM 50.4833 -83.2833 66° East 520 598 38,000  Level Winnipeg Center
Sun 10:48:31 PM 50.5333 -83.0833 68° East 520 598 38,000  Level Winnipeg Center
Sun 10:49:31 PM 50.5833 -82.8833 68° East 520 598 38,000  Level Winnipeg Center
Sun 10:50:31 PM 50.6167 -82.6500 77° East 520 598 38,000  Level Winnipeg Center
Sun 10:51:31 PM 50.6833 -82.4500 62° Northeast 520 598 38,000  Level Winnipeg Center
Sun 10:52:31 PM 50.7167 -82.2167 77° East 530 610 38,000  Level Winnipeg Center
Sun 10:53:31 PM 50.7833 -82.0167 62° Northeast 530 610 38,000  Level Winnipeg Center
Sun 10:54:31 PM 50.8167 -81.7833 77° East 530 610 38,000  Level Winnipeg Center
Sun 10:55:31 PM 50.8667 -81.5833 68° East 530 610 38,000  Level Winnipeg Center
Sun 10:56:31 PM 50.9167 -81.3500 71° East 530 610 38,000  Level Winnipeg Center
Sun 10:57:31 PM 50.9667 -81.1167 71° East 530 610 38,000  Level Winnipeg Center
Sun 10:58:31 PM 51.0167 -80.8833 71° East 530 610 38,000  Level Winnipeg Center
Sun 10:59:31 PM 51.0500 -80.6833 75° East 540 621 38,000  Level Winnipeg Center
Sun 11:00:31 PM 51.1000 -80.4500 71° East 540 621 38,000  Level Winnipeg Center
Sun 11:01:31 PM 51.1500 -80.2333 70° East 540 621 38,000  Level Winnipeg Center
Sun 11:02:31 PM 51.2000 -80.0000 71° East 540 621 38,000  Level Winnipeg Center
Sun 11:03:31 PM 51.2500 -79.7667 71° East 540 621 38,000  Level Winnipeg Center
Sun 11:04:31 PM 51.2833 -79.5333 77° East 550 633 38,000  Level Winnipeg Center
Sun 11:05:58 PM 51.3500 -79.3000 65° Northeast 530 610 38,000  Level Montreal Center
Sun 11:06:58 PM 51.4000 -79.0667 71° East 540 621 38,000  Level Montreal Center
Sun 11:07:58 PM 51.4500 -78.8500 70° East 540 621 38,000  Level Montreal Center
Sun 11:08:58 PM 51.5000 -78.5833 73° East 540 621 38,000  Level Montreal Center
Sun 11:09:58 PM 51.5333 -78.3667 76° East 540 621 38,000  Level Montreal Center
Sun 11:10:58 PM 51.5667 -78.1333 77° East 540 621 38,000  Level Montreal Center
Sun 11:11:58 PM 51.6167 -77.8833 72° East 540 621 38,000  Level Montreal Center
Sun 11:12:58 PM 51.6667 -77.6667 70° East 540 621 38,000  Level Montreal Center
Sun 11:13:58 PM 51.7000 -77.4333 77° East 540 621 38,000  Level Montreal Center
Sun 11:14:58 PM 51.7333 -77.2167 76° East 540 621 38,000  Level Montreal Center
Sun 11:15:58 PM 51.7833 -76.9667 72° East 540 621 38,000  Level Montreal Center
Sun 11:16:58 PM 51.8167 -76.7333 77° East 540 621 38,000  Level Montreal Center
Sun 11:17:58 PM 51.8500 -76.5167 76° East 530 610 38,000  Level Montreal Center
Sun 11:18:58 PM 51.9000 -76.2667 72° East 530 610 38,000  Level Montreal Center
Sun 11:19:58 PM 51.9333 -76.0167 78° East 530 610 38,000  Level Montreal Center
Sun 11:20:58 PM 51.9833 -75.7667 72° East 540 621 38,000  Level Montreal Center
Sun 11:21:58 PM 52.0167 -75.5500 76° East 540 621 38,000  Level Montreal Center
Sun 11:22:58 PM 52.0500 -75.3000 78° East 540 621 38,000  Level Montreal Center
Sun 11:23:58 PM 52.0667 -75.0667 83° East 540 621 38,000  Level Montreal Center
Sun 11:24:58 PM 52.1000 -74.8333 77° East 530 610 38,000  Level Montreal Center
Sun 11:25:58 PM 52.1500 -74.6000 71° East 540 621 38,000  Level Montreal Center
Sun 11:26:58 PM 52.1833 -74.3500 78° East 540 621 38,000 150 Level Montreal Center
Sun 11:27:58 PM 52.2333 -74.1000 72° East 560 644 38,300 500 Climbing Montreal Center
Sun 11:28:58 PM 52.2667 -73.8667 77° East 550 633 39,000 350 Climbing Montreal Center
Sun 11:29:58 PM 52.2833 -73.6000 84° East 550 633 39,000  Level Montreal Center
Sun 11:30:58 PM 52.3167 -73.3500 78° East 550 633 39,000  Level Montreal Center
Sun 11:31:58 PM 52.3667 -73.1167 71° East 560 644 39,000  Level Montreal Center
Sun 11:32:58 PM 52.3833 -72.8500 84° East 560 644 39,000  Level Montreal Center
Sun 11:33:58 PM 52.4167 -72.6167 77° East 560 644 39,000  Level Montreal Center
Sun 11:34:58 PM 52.4667 -72.3500 73° East 570 656 39,000  Level Montreal Center
Sun 11:35:58 PM 52.4833 -72.1000 84° East 560 644 39,000  Level Montreal Center
Sun 11:36:58 PM 52.5167 -71.8333 78° East 560 644 39,000  Level Montreal Center
Sun 11:37:58 PM 52.5333 -71.6167 83° East 550 633 39,000  Level Montreal Center
Sun 11:38:58 PM 52.5833 -71.3667 72° East 550 633 39,000  Level Montreal Center
Sun 11:39:58 PM 52.6000 -71.1167 84° East 550 633 39,000  Level Montreal Center
Sun 11:40:58 PM 52.6167 -70.8500 84° East 550 633 39,000  Level Montreal Center
Sun 11:41:38 PM 52.6333 -70.7500 75° East 550 633 39,000  Level Gander Center
Sun 11:42:38 PM 52.6833 -70.4833 73° East 560 644 39,000  Level Gander Center
Sun 11:43:38 PM 52.7000 -70.2333 84° East 550 633 39,000  Level Gander Center
Sun 11:44:38 PM 52.7333 -70.0000 77° East 550 633 39,000  Level Gander Center
Sun 11:45:38 PM 52.7500 -69.7500 84° East 540 621 39,000  Level Gander Center
Sun 11:46:38 PM 52.7667 -69.5000 84° East 550 633 39,000  Level Gander Center
Sun 11:47:38 PM 52.8000 -69.2500 77° East 550 633 39,000  Level Gander Center
Sun 11:48:38 PM 52.8167 -69.0167 83° East 550 633 39,000  Level Gander Center
Sun 11:49:38 PM 52.8500 -68.7667 77° East 540 621 39,000  Level Gander Center
Sun 11:50:38 PM 52.9000 -68.5167 72° East 540 621 39,000  Level Gander Center
Sun 11:51:38 PM 52.9333 -68.2833 77° East 540 621 39,000  Level Gander Center
Sun 11:52:38 PM 52.9500 -68.0333 84° East 540 621 39,000  Level Gander Center
Sun 11:53:38 PM 52.9833 -67.7667 78° East 540 621 39,000  Level Gander Center
Sun 11:54:38 PM 53.0167 -67.5333 77° East 540 621 39,000  Level Gander Center
Sun 11:55:38 PM 53.0500 -67.3000 77° East 540 621 39,000  Level Gander Center
Sun 11:56:38 PM 53.0667 -67.0500 84° East 550 633 39,000  Level Gander Center
Sun 11:57:38 PM 53.1000 -66.8000 77° East 540 621 39,000  Level Gander Center
Sun 11:58:38 PM 53.1333 -66.5500 77° East 550 633 39,000  Level Gander Center
Sun 11:59:38 PM 53.1500 -66.3000 84° East 550 633 39,000  Level Gander Center
Mon 12:00:38 AM 53.1833 -66.0500 77° East 540 621 39,000  Level Gander Center
Mon 12:01:38 AM 53.2167 -65.8000 77° East 540 621 39,000  Level Gander Center
Mon 12:03:14 AM 53.2667 -65.4000 78° East 550 633 39,000  Level Gander Center
Mon 12:03:58 AM 53.2667 -65.1833 90° East 550 633 39,000  Level Montreal Center
Mon 12:04:38 AM 53.2833 -65.0667 77° East 550 633 39,000  Level Gander Center
Mon 12:05:38 AM 53.3167 -64.7833 79° East 550 633 39,000  Level Gander Center
Mon 12:06:38 AM 53.3333 -64.5667 83° East 550 633 39,000  Level Gander Center
Mon 12:07:38 AM 53.3667 -64.2833 79° East 550 633 39,000  Level Gander Center
Mon 12:08:38 AM 53.3833 -64.0333 84° East 550 633 39,000  Level Gander Center
Mon 12:09:38 AM 53.4000 -63.8000 83° East 550 633 39,000  Level Gander Center
Mon 12:10:38 AM 53.4333 -63.5333 78° East 550 633 39,000  Level Gander Center
Mon 12:11:38 AM 53.4500 -63.2833 84° East 550 633 39,000  Level Gander Center
Mon 12:12:38 AM 53.4667 -63.0167 84° East 550 633 39,000  Level Gander Center
Mon 12:13:38 AM 53.4833 -62.7667 84° East 550 633 39,000  Level Gander Center
Mon 12:14:38 AM 53.5000 -62.5167 84° East 550 633 39,000  Level Gander Center
Mon 12:15:38 AM 53.5333 -62.2667 77° East 550 633 39,000  Level Gander Center
Mon 12:16:38 AM 53.5500 -62.0167 83° East 550 633 39,000  Level Gander Center
Mon 12:17:38 AM 53.5833 -61.7667 77° East 550 633 39,000  Level Gander Center
Mon 12:18:38 AM 53.5833 -61.5000 90° East 550 633 39,000  Level Gander Center
Mon 12:19:38 AM 53.6167 -61.2500 77° East 550 633 39,000  Level Gander Center
Mon 12:20:38 AM 53.6333 -61.0000 83° East 540 621 39,000  Level Gander Center
Mon 12:21:38 AM 53.6500 -60.7500 83° East 540 621 39,000  Level Gander Center
Mon 12:22:38 AM 53.6667 -60.5000 83° East 550 633 39,000  Level Gander Center
Mon 12:23:14 AM 53.6667 -60.3167 90° East 550 633 39,000  Level Gander Center
Mon 12:24:14 AM 53.6667 -60.0667 90° East 550 633 39,000  Level Gander Center
Mon 12:25:14 AM 53.6833 -59.8167 83° East 550 633 39,000  Level Gander Center
Mon 12:26:14 AM 53.7000 -59.5667 83° East 550 633 39,000  Level Gander Center
Mon 12:27:14 AM 53.7167 -59.3000 84° East 550 633 39,000  Level Gander Center
Mon 12:28:14 AM 53.7333 -59.0500 83° East 540 621 39,000  Level Gander Center
Mon 12:29:14 AM 53.7333 -58.8000 90° East 550 633 39,000  Level Gander Center
Mon 12:30:14 AM 53.7500 -58.5333 84° East 550 633 39,000  Level Gander Center
Mon 12:31:14 AM 53.7667 -58.2833 83° East 550 633 39,000  Level Gander Center
Mon 12:32:14 AM 53.7667 -58.0333 90° East 540 621 39,000  Level Gander Center
Mon 12:33:14 AM 53.7833 -57.7667 84° East 540 621 39,000  Level Gander Center
Mon 12:34:14 AM 53.7833 -57.5167 90° East 550 633 39,000  Level Gander Center
Mon 12:35:14 AM 53.8167 -57.2333 79° East 550 633 39,000  Level Gander Center
Mon 12:36:14 AM 53.8167 -57.0000 90° East 550 633 39,000  Level Gander Center
Mon 12:37:14 AM 53.8333 -56.7500 83° East 550 633 39,000  Level Gander Center
Mon 12:38:14 AM 53.8167 -56.5000 96° East 540 621 39,000  Level Gander Center
Mon 12:39:14 AM 53.8500 -56.2333 78° East 540 621 39,000  Level Gander Center
Mon 12:40:14 AM 53.8500 -55.9833 90° East 540 621 39,000  Level Gander Center
Mon 12:41:14 AM 53.8500 -55.7167 90° East 540 621 39,000  Level Gander Center
Mon 12:42:14 AM 53.8500 -55.4333 90° East 540 621 39,000  Level Gander Center
Mon 12:43:14 AM 53.8667 -55.2167 82° East 540 621 39,000  Level Gander Center
Mon 12:44:14 AM 53.8667 -54.9333 90° East 550 633 39,000  Level Gander Center
Mon 12:45:14 AM 53.8500 -54.7000 97° East 550 633 39,000  Level Gander Center
Mon 12:46:14 AM 53.8667 -54.4500 83° East 550 633 39,000  Level Gander Center
Mon 12:47:14 AM 53.8667 -54.1500 90° East 550 633 39,000  Level Gander Center
Mon 12:48:14 AM 53.8833 -53.9333 82° East 550 633 39,000  Level Gander Center
Mon 12:49:14 AM 53.9000 -53.6667 84° East 550 633 39,000  Level Gander Center
Mon 12:50:14 AM 53.9000 -53.4167 90° East 550 633 39,000  Level Gander Center
Mon 12:51:14 AM 53.9167 -53.1500 84° East 550 633 39,000  Level Gander Center
Mon 12:52:14 AM 53.9167 -52.9000 90° East 550 633 39,000  Level Gander Center
Mon 12:53:14 AM 53.9333 -52.6333 84° East 550 633 39,000  Level Gander Center
Mon 12:54:14 AM 53.9167 -52.3833 96° East 550 633 39,000  Level Gander Center
Mon 12:55:14 AM 53.9333 -52.1167 84° East 550 633 39,000  Level Gander Center
Mon 12:56:14 AM 53.9333 -51.8667 90° East 550 633 39,000  Level Gander Center
Mon 12:57:14 AM 53.9500 -51.6000 84° East 550 633 39,000  Level Gander Center
Mon 12:58:14 AM 53.9500 -51.3500 90° East 550 633 39,000  Level Gander Center
Mon 12:59:14 AM 53.9500 -51.0833 90° East 550 633 39,000  Level Gander Center
Mon 01:00:14 AM 53.9667 -50.8333 83° East 550 633 39,000  Level Gander Center
Mon 01:01:14 AM 53.9667 -50.5667 90° East 550 633 39,000  Level Gander Center
Mon 01:03:00 AM 53.9922 -50.1372 84° East  Level FlightAware Approximate
Mon 01:03:55 AM 53.9667 -49.8833 84° East 310 357 39,000  Level Gander Center
Mon 01:05:00 AM 53.9874 -49.5759 83° East  Level FlightAware Approximate
Mon 01:12:00 AM 54.0685 -47.8681 87° East  Level FlightAware Approximate
Mon 01:13:00 AM 54.0740 -47.6234 88° East  Level FlightAware Approximate
Mon 01:14:00 AM 54.0790 -47.3787 88° East  Level FlightAware Approximate
Mon 01:15:00 AM 54.0835 -47.1338 88° East  Level FlightAware Approximate
Mon 01:16:00 AM 54.0876 -46.8890 88° East  Level FlightAware Approximate
Mon 01:17:00 AM 54.0911 -46.6441 88° East  Level FlightAware Approximate
Mon 01:18:00 AM 54.0941 -46.3991 89° East  Level FlightAware Approximate
Mon 01:19:00 AM 54.0966 -46.1541 89° East  Level FlightAware Approximate
Mon 01:20:00 AM 54.0987 -45.9091 89° East  Level FlightAware Approximate
Mon 01:21:00 AM 54.1002 -45.6641 89° East  Level FlightAware Approximate
Mon 01:22:00 AM 54.1014 -45.4190 89° East  Level FlightAware Approximate
Mon 01:23:00 AM 54.1021 -45.1740 90° East  Level FlightAware Approximate
Mon 01:24:00 AM 54.1022 -44.9289 90° East  Level FlightAware Approximate
Mon 01:25:00 AM 54.1019 -44.6839 90° East  Level FlightAware Approximate
Mon 01:26:00 AM 54.1011 -44.4388 90° East  Level FlightAware Approximate
Mon 01:27:00 AM 54.0998 -44.1938 90° East  Level FlightAware Approximate
Mon 01:28:00 AM 54.0980 -43.9487 91° East  Level FlightAware Approximate
Mon 01:29:00 AM 54.0957 -43.7038 91° East  Level FlightAware Approximate
Mon 01:30:00 AM 54.0929 -43.4588 91° East  Level FlightAware Approximate
Mon 01:31:00 AM 54.0896 -43.2138 91° East  Level FlightAware Approximate
Mon 01:32:00 AM 54.0858 -42.9690 91° East  Level FlightAware Approximate
Mon 01:33:00 AM 54.0815 -42.7241 92° East  Level FlightAware Approximate
Mon 01:34:00 AM 54.0767 -42.4793 92° East  Level FlightAware Approximate
Mon 01:35:00 AM 54.0714 -42.2346 92° East  Level FlightAware Approximate
Mon 01:36:00 AM 54.0656 -41.9899 92° East  Level FlightAware Approximate
Mon 01:37:00 AM 54.0593 -41.7453 92° East  Level FlightAware Approximate
Mon 01:38:00 AM 54.0526 -41.5008 93° East  Level FlightAware Approximate
Mon 01:39:00 AM 54.0453 -41.2564 93° East  Level FlightAware Approximate
Mon 01:40:00 AM 54.0375 -41.0121 93° East  Level FlightAware Approximate
Mon 01:41:00 AM 54.0292 -40.7678 93° East  Level FlightAware Approximate
Mon 01:42:00 AM 54.0205 -40.5237 93° East  Level FlightAware Approximate
Mon 01:43:00 AM 54.0112 -40.2796 94° East  Level FlightAware Approximate
Mon 01:44:00 AM 54.0015 -40.0357 94° East  Level FlightAware Approximate
Mon 01:45:00 AM 54.0084 -39.7918 86° East  Level FlightAware Approximate
Mon 01:46:00 AM 54.0179 -39.5478 86° East  Level FlightAware Approximate
Mon 01:47:00 AM 54.0268 -39.3036 86° East  Level FlightAware Approximate
Mon 01:48:00 AM 54.0353 -39.0594 87° East  Level FlightAware Approximate
Mon 01:49:00 AM 54.0432 -38.8151 87° East  Level FlightAware Approximate
Mon 01:50:00 AM 54.0507 -38.5707 87° East  Level FlightAware Approximate
Mon 01:51:00 AM 54.0576 -38.3262 87° East  Level FlightAware Approximate
Mon 01:52:00 AM 54.0641 -38.0816 87° East  Level FlightAware Approximate
Mon 01:53:00 AM 54.0700 -37.8370 88° East  Level FlightAware Approximate
Mon 01:54:00 AM 54.0755 -37.5923 88° East  Level FlightAware Approximate
Mon 01:55:00 AM 54.0805 -37.3475 88° East  Level FlightAware Approximate
Mon 01:56:00 AM 54.0849 -37.1027 88° East  Level FlightAware Approximate
Mon 01:57:00 AM 54.0889 -36.8578 88° East  Level FlightAware Approximate
Mon 01:58:00 AM 54.0924 -36.6129 89° East  Level FlightAware Approximate
Mon 01:59:00 AM 54.0954 -36.3679 89° East  Level FlightAware Approximate
Mon 02:00:00 AM 54.0979 -36.1229 89° East  Level FlightAware Approximate
Mon 02:01:00 AM 54.0999 -35.8779 89° East  Level FlightAware Approximate
Mon 02:02:00 AM 54.1013 -35.6329 89° East  Level FlightAware Approximate
Mon 02:03:00 AM 54.1023 -35.3878 90° East  Level FlightAware Approximate
Mon 02:04:00 AM 54.1028 -35.1428 90° East  Level FlightAware Approximate
Mon 02:05:00 AM 54.1028 -34.8977 90° East  Level FlightAware Approximate
Mon 02:06:00 AM 54.1023 -34.6526 90° East  Level FlightAware Approximate
Mon 02:07:00 AM 54.1013 -34.4076 90° East  Level FlightAware Approximate
Mon 02:08:00 AM 54.0998 -34.1625 90° East  Level FlightAware Approximate
Mon 02:09:00 AM 54.0978 -33.9175 91° East  Level FlightAware Approximate
Mon 02:10:00 AM 54.0953 -33.6725 91° East  Level FlightAware Approximate
Mon 02:11:00 AM 54.0924 -33.4276 91° East  Level FlightAware Approximate
Mon 02:12:00 AM 54.0889 -33.1827 91° East  Level FlightAware Approximate
Mon 02:13:00 AM 54.0849 -32.9378 91° East  Level FlightAware Approximate
Mon 02:14:00 AM 54.0805 -32.6930 92° East  Level FlightAware Approximate
Mon 02:15:00 AM 54.0757 -32.4482 92° East  Level FlightAware Approximate
Mon 02:16:00 AM 54.0704 -32.2034 92° East  Level FlightAware Approximate
Mon 02:17:00 AM 54.0645 -31.9588 92° East  Level FlightAware Approximate
Mon 02:18:00 AM 54.0582 -31.7142 92° East  Level FlightAware Approximate
Mon 02:19:00 AM 54.0514 -31.4697 93° East  Level FlightAware Approximate
Mon 02:20:00 AM 54.0441 -31.2253 93° East  Level FlightAware Approximate
Mon 02:21:00 AM 54.0363 -30.9809 93° East  Level FlightAware Approximate
Mon 02:22:00 AM 54.0280 -30.7367 93° East  Level FlightAware Approximate
Mon 02:23:00 AM 54.0192 -30.4926 93° East  Level FlightAware Approximate
Mon 02:24:00 AM 54.0100 -30.2485 94° East  Level FlightAware Approximate
Mon 02:25:00 AM 54.0002 -30.0046 94° East  Level FlightAware Approximate
Mon 02:26:00 AM 54.0335 -29.7669 76° East  Level FlightAware Approximate
Mon 02:27:00 AM 54.0671 -29.5289 76° East  Level FlightAware Approximate
Mon 02:28:00 AM 54.1002 -29.2906 77° East  Level FlightAware Approximate
Mon 02:29:00 AM 54.1329 -29.0519 77° East  Level FlightAware Approximate
Mon 02:30:00 AM 54.1651 -28.8128 77° East  Level FlightAware Approximate
Mon 02:31:00 AM 54.1969 -28.5733 77° East  Level FlightAware Approximate
Mon 02:32:00 AM 54.2282 -28.3335 77° East  Level FlightAware Approximate
Mon 02:33:00 AM 54.2589 -28.0933 78° East  Level FlightAware Approximate
Mon 02:34:00 AM 54.2893 -27.8528 78° East  Level FlightAware Approximate
Mon 02:35:00 AM 54.3191 -27.6119 78° East  Level FlightAware Approximate
Mon 02:36:00 AM 54.3484 -27.3706 78° East  Level FlightAware Approximate
Mon 02:37:00 AM 54.3773 -27.1290 78° East  Level FlightAware Approximate
Mon 02:38:00 AM 54.4057 -26.8871 79° East  Level FlightAware Approximate
Mon 02:39:00 AM 54.4336 -26.6449 79° East  Level FlightAware Approximate
Mon 02:40:00 AM 54.4610 -26.4023 79° East  Level FlightAware Approximate
Mon 02:41:00 AM 54.4879 -26.1594 79° East  Level FlightAware Approximate
Mon 02:42:00 AM 54.5144 -25.9162 79° East  Level FlightAware Approximate
Mon 02:43:00 AM 54.5403 -25.6726 79° East  Level FlightAware Approximate
Mon 02:44:00 AM 54.5658 -25.4288 80° East  Level FlightAware Approximate
Mon 02:45:00 AM 54.5908 -25.1847 80° East  Level FlightAware Approximate
Mon 02:46:00 AM 54.6152 -24.9402 80° East  Level FlightAware Approximate
Mon 02:47:00 AM 54.6392 -24.6955 80° East  Level FlightAware Approximate
Mon 02:48:00 AM 54.6627 -24.4505 80° East  Level FlightAware Approximate
Mon 02:49:00 AM 54.6857 -24.2052 81° East  Level FlightAware Approximate
Mon 02:50:00 AM 54.7082 -23.9596 81° East  Level FlightAware Approximate
Mon 02:51:00 AM 54.7303 -23.7138 81° East  Level FlightAware Approximate
Mon 02:52:00 AM 54.7518 -23.4676 81° East  Level FlightAware Approximate
Mon 02:53:00 AM 54.7728 -23.2213 81° East  Level FlightAware Approximate
Mon 02:54:00 AM 54.7933 -22.9747 82° East  Level FlightAware Approximate
Mon 02:55:00 AM 54.8133 -22.7278 82° East  Level FlightAware Approximate
Mon 02:56:00 AM 54.8328 -22.4807 82° East  Level FlightAware Approximate
Mon 02:57:00 AM 54.8518 -22.2334 82° East  Level FlightAware Approximate
Mon 02:58:00 AM 54.8703 -21.9858 83° East  Level FlightAware Approximate
Mon 02:59:00 AM 54.8883 -21.7380 83° East  Level FlightAware Approximate
Mon 03:00:00 AM 54.9058 -21.4900 83° East  Level FlightAware Approximate
Mon 03:01:00 AM 54.9228 -21.2417 83° East  Level FlightAware Approximate
Mon 03:02:00 AM 54.9393 -20.9933 83° East  Level FlightAware Approximate
Mon 03:03:00 AM 54.9553 -20.7447 84° East  Level FlightAware Approximate
Mon 03:04:00 AM 54.9707 -20.4958 84° East  Level FlightAware Approximate
Mon 03:05:00 AM 54.9850 -20.2590 84° East  Level FlightAware Approximate
Mon 03:06:00 AM 54.9987 -20.0221 84° East  Level FlightAware Approximate
Mon 03:07:00 AM 54.9692 -19.7908 104° East  Level FlightAware Approximate
Mon 03:08:00 AM 54.9348 -19.5606 104° East  Level FlightAware Approximate
Mon 03:09:00 AM 54.8999 -19.3307 105° East  Level FlightAware Approximate
Mon 03:10:00 AM 54.8646 -19.1012 105° East  Level FlightAware Approximate
Mon 03:11:00 AM 54.8289 -18.8721 105° East  Level FlightAware Approximate
Mon 03:12:00 AM 54.7928 -18.6435 105° East  Level FlightAware Approximate
Mon 03:13:00 AM 54.7562 -18.4152 105° East  Level FlightAware Approximate
Mon 03:14:00 AM 54.7192 -18.1874 106° East  Level FlightAware Approximate
Mon 03:15:00 AM 54.6818 -17.9600 106° East  Level FlightAware Approximate
Mon 03:16:00 AM 54.6439 -17.7330 106° East  Level FlightAware Approximate
Mon 03:17:00 AM 54.6056 -17.5064 106° East  Level FlightAware Approximate
Mon 03:18:00 AM 54.5669 -17.2802 106° East  Level FlightAware Approximate
Mon 03:19:00 AM 54.5278 -17.0545 107° East  Level FlightAware Approximate
Mon 03:20:00 AM 54.4883 -16.8292 107° East  Level FlightAware Approximate
Mon 03:21:00 AM 54.4483 -16.6044 107° East  Level FlightAware Approximate
Mon 03:22:00 AM 54.4080 -16.3800 107° East  Level FlightAware Approximate
Mon 03:23:00 AM 54.3672 -16.1560 107° East  Level FlightAware Approximate
Mon 03:24:00 AM 54.3260 -15.9325 107° East  Level FlightAware Approximate
Mon 03:25:00 AM 54.2843 -15.7095 108° East  Level FlightAware Approximate
Mon 03:26:00 AM 54.2423 -15.4868 108° East  Level FlightAware Approximate
Mon 03:27:00 AM 54.1999 -15.2647 108° East  Level FlightAware Approximate
Mon 03:27:21 AM 54.6880 -13.7450 108° East 524 603 39,000  Level FlightAware ADS-B
Mon 03:28:00 AM 54.1570 -15.0430 108° East  Level FlightAware Approximate
Mon 03:28:06 AM 54.6440 -13.5750 114° Southeast 523 602 39,000  Level FlightAware ADS-B
Mon 03:28:46 AM 54.6060 -13.4270 114° Southeast 523 602 39,000  Level FlightAware ADS-B
Mon 03:29:26 AM 54.5650 -13.2700 114° Southeast 522 601 39,000  Level FlightAware ADS-B
Mon 03:30:11 AM 54.5220 -13.1030 114° Southeast 520 598 39,000  Level FlightAware ADS-B
Mon 03:30:51 AM 54.4810 -12.9480 114° Southeast 520 598 39,000  Level FlightAware ADS-B
Mon 03:31:36 AM 54.4360 -12.7800 115° Southeast 521 600 39,000  Level FlightAware ADS-B
Mon 03:32:11 AM 54.4000 -12.6460 115° Southeast 520 598 39,000  Level FlightAware ADS-B
Mon 03:32:59 AM 54.3520 -12.4650 114° Southeast 519 597 39,000  Level FlightAware ADS-B
Mon 03:33:41 AM 54.3110 -12.3140 115° Southeast 517 595 39,000  Level FlightAware ADS-B
Mon 03:34:21 AM 54.2690 -12.1630 115° Southeast 515 593 39,000  Level FlightAware ADS-B
Mon 03:35:01 AM 54.2280 -12.0140 115° Southeast 518 596 39,000  Level FlightAware ADS-B
Mon 03:35:47 AM 54.1820 -11.8450 115° Southeast 523 602 39,000  Level FlightAware ADS-B
Mon 03:36:26 AM 54.1400 -11.6960 116° Southeast 524 603 39,000  Level FlightAware ADS-B
Mon 03:37:12 AM 54.0930 -11.5290 116° Southeast 522 601 39,000  Level FlightAware ADS-B
Mon 03:37:51 AM 54.0510 -11.3810 116° Southeast 520 598 39,000  Level FlightAware ADS-B
Mon 03:38:37 AM 54.0040 -11.2140 116° Southeast 521 600 39,000  Level FlightAware ADS-B
Mon 03:39:18 AM 53.9610 -11.0650 116° Southeast 522 601 39,000  Level FlightAware ADS-B
Mon 03:39:57 AM 53.9190 -10.9190 116° Southeast 523 602 39,000  Level FlightAware ADS-B
Mon 03:40:43 AM 53.8710 -10.7540 116° Southeast 521 600 39,000  Level FlightAware ADS-B
Mon 03:41:22 AM 53.8280 -10.6080 116° Southeast 518 596 39,000  Level FlightAware ADS-B
Mon 03:42:02 AM 53.7850 -10.4610 116° Southeast 520 598 39,000  Level FlightAware ADS-B
Mon 03:42:42 AM 53.7420 -10.3160 117° Southeast 521 600 39,000  Level FlightAware ADS-B
Mon 03:43:27 AM 53.6940 -10.1520 116° Southeast 523 602 39,000  Level FlightAware ADS-B
Mon 03:44:07 AM 53.6500 -10.0070 117° Southeast 524 603 39,000  Level FlightAware ADS-B
Mon 03:44:52 AM 53.6000 -9.8410 117° Southeast 527 606 39,000  Level FlightAware ADS-B
Mon 03:45:33 AM 53.5560 -9.6960 117° Southeast 527 606 39,000  Level FlightAware ADS-B
Mon 03:46:13 AM 53.5100 -9.5460 117° Southeast 529 609 39,000  Level FlightAware ADS-B
Mon 03:46:58 AM 53.4610 -9.3840 117° Southeast 531 611 39,000  Level FlightAware ADS-B
Mon 03:47:38 AM 53.4150 -9.2360 117° Southeast 532 612 39,000  Level FlightAware ADS-B
Mon 03:48:23 AM 53.3640 -9.0730 118° Southeast 530 610 39,000  Level FlightAware ADS-B
Mon 03:49:03 AM 53.3180 -8.9260 118° Southeast 530 610 39,000  Level FlightAware ADS-B
Mon 03:49:44 AM 53.2691 -8.7707 118° Southeast 488 562 39,000  Level FlightAware UK
Mon 03:49:48 AM 53.2670 -8.7640 118° Southeast 531 611 39,000  Level FlightAware ADS-B
Mon 03:50:28 AM 53.2200 -8.6150 118° Southeast 530 610 39,000  Level FlightAware ADS-B
Mon 03:51:08 AM 53.1740 -8.4720 118° Southeast 531 611 39,000  Level FlightAware ADS-B
Mon 03:51:44 AM 53.1298 -8.3348 118° Southeast 490 564 39,000  Level FlightAware UK
Mon 03:51:49 AM 53.1270 -8.3270 118° Southeast 530 610 39,000  Level FlightAware ADS-B
Mon 03:52:33 AM 53.0740 -8.1640 118° Southeast 529 609 39,000  Level FlightAware ADS-B
Mon 03:53:13 AM 53.0280 -8.0220 118° Southeast 528 608 39,000  Level FlightAware ADS-B
Mon 03:53:14 AM 53.0245 -8.0100 118° Southeast 488 562 39,000  Level FlightAware UK
Mon 03:53:44 AM 52.9893 -7.9026 118° Southeast 486 559 39,000  Level FlightAware UK
Mon 03:53:59 AM 52.9750 -7.8590 118° Southeast 528 608 39,000  Level FlightAware ADS-B
Mon 03:54:38 AM 52.9290 -7.7180 118° Southeast 532 612 39,000  Level FlightAware ADS-B
Mon 03:55:20 AM 52.8764 -7.5605 118° Southeast 488 562 39,000  Level FlightAware UK
Mon 03:55:23 AM 52.8750 -7.5580 118° Southeast 532 612 39,000  Level FlightAware ADS-B
Mon 03:56:03 AM 52.8270 -7.4140 119° Southeast 532 612 39,000  Level FlightAware ADS-B
Mon 03:56:43 AM 52.7810 -7.2740 118° Southeast 530 610 39,000  Level FlightAware ADS-B
Mon 03:57:21 AM 52.7337 -7.1343 118° Southeast 488 562 39,000  Level FlightAware UK
Mon 03:57:28 AM 52.7270 -7.1160 118° Southeast 529 609 39,000  Level FlightAware ADS-B
Mon 03:58:08 AM 52.6810 -6.9810 119° Southeast 528 608 39,000  Level FlightAware ADS-B
Mon 03:58:51 AM 52.6265 -6.8189 119° Southeast 486 559 39,000  Level FlightAware UK
Mon 03:58:53 AM 52.6250 -6.8170 119° Southeast 530 610 39,000  Level FlightAware ADS-B
Mon 03:59:33 AM 52.5770 -6.6770 119° Southeast 531 611 39,000  Level FlightAware ADS-B
Mon 04:00:17 AM 52.5230 -6.5200 119° Southeast 533 613 39,000  Level FlightAware ADS-B
Mon 04:00:53 AM 52.4790 -6.3940 119° Southeast 534 615 39,000  Level FlightAware ADS-B
Mon 04:00:57 AM 52.4739 -6.3775 119° Southeast 488 562 39,000  Level FlightAware UK
Mon 04:01:27 AM 52.4373 -6.2722 119° Southeast 486 559 39,000  Level FlightAware UK
Mon 04:01:41 AM 52.4200 -6.2250 119° Southeast 533 613 39,000  Level FlightAware ADS-B
Mon 04:02:19 AM 52.3740 -6.0930 120° Southeast 533 613 39,000  Level FlightAware ADS-B
Mon 04:03:07 AM 52.3130 -5.9230 120° Southeast 534 615 39,000  Level FlightAware ADS-B
Mon 04:03:39 AM 52.2741 -5.8114 120° Southeast 484 557 39,000  Level FlightAware UK
Mon 04:03:47 AM 52.2650 -5.7860 120° Southeast 534 615 39,000  Level FlightAware ADS-B
Mon 04:04:22 AM 52.2340 -5.6660 113° Southeast 536 617 39,000  Level FlightAware ADS-B
Mon 04:05:13 AM 52.1970 -5.4560 106° East 538 619 39,000  Level FlightAware ADS-B
Mon 04:05:55 AM 52.1660 -5.2950 107° East 539 620 39,000  Level FlightAware ADS-B
Mon 04:06:35 AM 52.1380 -5.1400 106° East 539 620 39,000  Level FlightAware ADS-B
Mon 04:07:09 AM 52.1127 -5.0060 106° East 486 559 39,000  Level FlightAware UK
Mon 04:07:15 AM 52.1090 -4.9880 106° East 540 621 39,000  Level FlightAware ADS-B
Mon 04:07:59 AM 52.0770 -4.8170 107° East 539 620 39,000  Level FlightAware ADS-B
Mon 04:08:39 AM 52.0470 -4.6630 108° East 539 620 39,000  Level FlightAware ADS-B
Mon 04:09:20 AM 52.0170 -4.5050 107° East 539 620 39,000  Level FlightAware ADS-B
Mon 04:09:57 AM 51.9881 -4.3572 107° East 482 555 39,000  Level FlightAware UK
Mon 04:10:03 AM 51.9840 -4.3370 107° East 542 624 39,000  Level FlightAware ADS-B
Mon 04:10:46 AM 51.9520 -4.1740 108° East 543 625 39,000  Level FlightAware ADS-B
Mon 04:11:29 AM 51.9190 -4.0080 108° East 544 626 39,000  Level FlightAware ADS-B
Mon 04:12:13 AM 51.8860 -3.8440 108° East 541 623 39,000  Level FlightAware ADS-B
Mon 04:12:49 AM 51.8580 -3.7040 108° East 541 623 39,000  Level FlightAware ADS-B
Mon 04:13:33 AM 51.8218 -3.5242 108° East 488 562 39,000  Level FlightAware UK
Mon 04:13:35 AM 51.8220 -3.5260 108° East 542 624 39,000  Level FlightAware ADS-B
Mon 04:14:09 AM 51.7935 -3.3863 108° East 486 559 39,000  Level FlightAware UK
Mon 04:14:13 AM 51.7910 -3.3750 108° East 540 621 39,000  Level FlightAware ADS-B
Mon 04:15:01 AM 51.7540 -3.1930 108° East 538 619 39,000  Level FlightAware ADS-B
Mon 04:15:40 AM 51.7224 -3.0425 108° East 488 562 39,000  Level FlightAware UK
Mon 04:15:43 AM 51.7210 -3.0370 108° East 535 616 39,000  Level FlightAware ADS-B
Mon 04:16:16 AM 51.6939 -2.9072 108° East 492 566 39,000  Level FlightAware UK
Mon 04:16:25 AM 51.6880 -2.8780 108° East 532 612 39,000  Level FlightAware ADS-B
Mon 04:17:05 AM 51.6570 -2.7340 109° East 528 608 39,000  Level FlightAware ADS-B
Mon 04:17:47 AM 51.6230 -2.5740 109° East 525 604 39,000  Level FlightAware ADS-B
Mon 04:18:22 AM 51.5945 -2.4397 109° East 486 559 39,000  Level FlightAware UK
Mon 04:18:29 AM 51.5900 -2.4190 109° East 522 601 39,000  Level FlightAware ADS-B
Mon 04:19:11 AM 51.5580 -2.2730 109° East 522 601 39,000  Level FlightAware ADS-B
Mon 04:19:53 AM 51.5140 -2.1200 115° Southeast 523 602 39,000  Level FlightAware ADS-B
Mon 04:20:37 AM 51.4650 -1.9680 117° Southeast 524 603 39,000  Level FlightAware ADS-B
Mon 04:21:17 AM 51.4210 -1.8330 118° Southeast 523 602 39,000  Level FlightAware ADS-B
Mon 04:21:58 AM 51.3760 -1.6940 117° Southeast 524 603 39,000  Level FlightAware ADS-B
Mon 04:22:42 AM 51.3260 -1.5420 118° Southeast 532 612 39,000  Level FlightAware ADS-B
Mon 04:23:22 AM 51.2810 -1.4060 118° Southeast 530 610 39,000  Level FlightAware ADS-B
Mon 04:24:04 AM 51.2330 -1.2590 117° Southeast 529 609 39,000  Level FlightAware ADS-B
Mon 04:24:47 AM 51.1830 -1.1110 118° Southeast 532 612 39,000 -380 Level FlightAware ADS-B
Mon 04:25:23 AM 51.1386 -0.9778 118° Southeast 488 562 38,500 -837 Descending FlightAware UK
Mon 04:25:30 AM 51.1330 -0.9610 118° Southeast 529 609 38,400 -840 Descending FlightAware ADS-B
Mon 04:26:13 AM 51.0830 -0.8130 118° Southeast 538 619 37,800 -987 Descending FlightAware ADS-B
Mon 04:26:49 AM 51.0380 -0.6810 118° Southeast 538 619 37,100 -1,012 Descending FlightAware ADS-B
Mon 04:27:36 AM 50.9860 -0.5270 118° Southeast 545 627 36,400 -1,011 Descending FlightAware ADS-B
Mon 04:28:18 AM 50.9319 -0.3712 118° Southeast 476 548 35,600 -955 Descending FlightAware UK
Mon 04:28:20 AM 50.9330 -0.3740 118° Southeast 543 625 35,700 -2,045 Climbing FlightAware ADS-B
Mon 04:29:02 AM 50.8800 -0.2200 119° Southeast 539 620 34,100 -2,024 Descending FlightAware ADS-B
Mon 04:29:43 AM 50.8340 -0.0900 119° Southeast 531 611 32,900 -2,278 Descending FlightAware ADS-B
Mon 04:30:21 AM 50.7740 0.0380 127° Southeast 538 619 31,100 -2,000 Descending FlightAware ADS-B
Mon 04:31:07 AM 50.7030 0.1760 129° Southeast 525 604 30,100 -1,326 Descending FlightAware ADS-B
Mon 04:31:47 AM 50.6440 0.2920 129° Southeast 506 582 29,200 -1,558 Descending FlightAware ADS-B
Mon 04:32:24 AM 50.5880 0.3870 133° Southeast 501 577 28,100 -1,899 Descending FlightAware ADS-B
Mon 04:33:06 AM 50.5056 0.4816 133° Southeast 428 493 26,700 -1,909 Descending FlightAware UK
Mon 04:33:08 AM 50.5060 0.4820 133° Southeast 493 567 26,700 -750 Level FlightAware ADS-B
Mon 04:33:46 AM 50.4430 0.5580 142° Southeast 469 540 26,200 -506 Descending FlightAware ADS-B
Mon 04:34:31 AM 50.3630 0.6540 142° Southeast 450 518 26,000 -240 Descending FlightAware ADS-B
Mon 04:34:36 AM 50.3508 0.6686 142° Southeast 386 444 26,000 -171 Level FlightAware UK
Mon 04:35:06 AM 50.2977 0.7189 142° Southeast 384 442 25,900  Descending FlightAware UK
Mon 04:35:13 AM 50.2880 0.7280 142° Southeast 445 512 26,000 118 Climbing FlightAware ADS-B
Mon 04:35:57 AM 50.2090 0.7950 152° Southeast 445 512 26,000 -1,346 Level FlightAware ADS-B
Mon 04:37:00 AM 50.0889 0.8984 152° Southeast 414 476 23,600 -1,974 Descending FlightAware UK
Mon 04:37:13 AM 50.0680 0.9160 152° Southeast 466 536 23,500 -1,469 Descending FlightAware ADS-B
Mon 04:37:49 AM 49.9989 0.9767 152° Southeast 406 467 22,400 -1,800 Descending FlightAware UK
Mon 04:37:53 AM 49.9930 0.9820 152° Southeast 458 527 22,300 -1,571 Descending FlightAware ADS-B
Mon 04:38:31 AM 49.9215 1.0434 152° Southeast 398 458 21,300 -1,500 Descending FlightAware UK
Mon 04:38:37 AM 49.9130 1.0510 152° Southeast 451 519 21,200 -1,375 Descending FlightAware ADS-B
Mon 04:39:19 AM 49.8360 1.1170 151° Southeast 440 506 20,200 -1,200 Descending FlightAware ADS-B
Mon 04:39:57 AM 49.7710 1.1730 151° Southeast 414 476 19,600 -975 Descending FlightAware ADS-B
Mon 04:40:39 AM 49.6980 1.2040 165° South 371 427 18,900 -1,364 Descending FlightAware ADS-B
Mon 04:41:25 AM 49.6220 1.2270 169° South 362 417 17,600 -1,674 Descending FlightAware ADS-B
Mon 04:42:05 AM 49.5630 1.2450 169° South 347 399 16,500 -1,857 Descending FlightAware ADS-B
Mon 04:42:07 AM 49.5523 1.2481 169° South 320 368 16,300 -2,857 Descending FlightAware UK
Mon 04:42:47 AM 49.4920 1.2820 169° South 381 438 14,500 -2,571 Descending FlightAware ADS-B
Mon 04:42:49 AM 49.4873 1.2883 169° South 348 400 14,500 -1,313 Level FlightAware UK
Mon 04:43:19 AM 49.4500 1.3440 169° South 344 396 13,800 -1,263 Descending FlightAware UK
Mon 04:43:27 AM 49.4430 1.3540 169° South 364 419 13,700 -1,615 Descending FlightAware ADS-B
Mon 04:44:11 AM 49.3870 1.4370 136° Southeast 363 418 12,400 -1,658 Descending FlightAware ADS-B
Mon 04:44:43 AM 49.3468 1.4966 136° Southeast 334 384 11,600 -1,350 Descending FlightAware UK
Mon 04:44:51 AM 49.3390 1.5100 136° Southeast 355 409 11,500 -1,000 Descending FlightAware ADS-B
Mon 04:45:25 AM 49.3014 1.5769 136° Southeast 330 380 10,900 -652 Descending FlightAware UK
Mon 04:45:37 AM 49.2980 1.6020 136° Southeast 350 403 11,000 125 Climbing FlightAware ADS-B
Mon 04:46:13 AM 49.2949 1.6942 136° Southeast 330 380 11,000  Level FlightAware UK
Mon 04:46:21 AM 49.2940 1.7110 136° Southeast 350 403 11,000  Level FlightAware ADS-B
Mon 04:46:56 AM 49.2900 1.7970 94° East 350 403 11,000  Level FlightAware ADS-B
Mon 04:47:41 AM 49.2850 1.9100 94° East 342 394 11,000  Level FlightAware ADS-B
Mon 04:48:21 AM 49.2800 1.9990 95° East 316 364 11,000  Level FlightAware ADS-B
Mon 04:49:02 AM 49.2760 2.0890 95° East 314 361 11,000  Level FlightAware ADS-B
Mon 04:49:07 AM 49.2802 2.1157 95° East 294 338 11,000  Level FlightAware UK
Mon 04:49:43 AM 49.2738 2.1904 95° East 292 336 11,000  Level FlightAware UK
Mon 04:49:47 AM 49.2710 2.1890 95° East 312 359 11,000  Level FlightAware ADS-B
Mon 04:50:19 AM 49.2694 2.2691 95° East 294 338 11,000  Level FlightAware UK
Mon 04:50:26 AM 49.2670 2.2790 95° East 315 362 11,000  Level FlightAware ADS-B
Mon 04:51:11 AM 49.2620 2.3780 94° East 315 362 11,000 -200 Level FlightAware ADS-B
Mon 04:51:56 AM 49.2570 2.4760 94° East 303 349 10,700 -434 Descending FlightAware ADS-B
Mon 04:52:34 AM 49.2520 2.5470 96° East 283 326 10,400 -667 Descending FlightAware ADS-B
Mon 04:53:17 AM 49.2410 2.6340 101° East 268 308 9,800 -917 Descending FlightAware ADS-B
Mon 04:53:46 AM 49.2350 2.6900 99° East 270 311 9,300 -1,111 Descending FlightAware ADS-B
Mon 04:54:11 AM 49.2290 2.7340 102° East 270 311 8,800 -1,200 Descending FlightAware ADS-B
Mon 04:54:31 AM 49.2240 2.7760 100° East 270 311 8,400 -933 Descending FlightAware ADS-B
Mon 04:54:56 AM 49.2200 2.8130 99° East 267 307 8,100 -923 Descending FlightAware ADS-B
Mon 04:55:23 AM 49.2130 2.8700 101° East 264 304 7,600 -1,024 Descending FlightAware ADS-B
Mon 04:55:37 AM 49.2100 2.8970 100° East 261 300 7,400 -913 Descending FlightAware ADS-B
Mon 04:56:09 AM 49.2030 2.9530 101° East 255 293 6,900 -960 Descending FlightAware ADS-B
Mon 04:56:27 AM 49.1990 2.9860 100° East 253 291 6,600 -923 Descending FlightAware ADS-B
Mon 04:57:01 AM 49.1930 3.0440 99° East 252 290 6,100 -563 Descending FlightAware ADS-B
Mon 04:57:31 AM 49.1780 3.0910 116° Southeast 251 289 6,000 -107 Descending FlightAware ADS-B
Mon 04:57:57 AM 49.1590 3.1280 128° Southeast 247 284 6,000  Level FlightAware ADS-B
Mon 04:58:26 AM 49.1370 3.1640 133° Southeast 238 274 6,000 -610 Level FlightAware ADS-B
Mon 04:58:56 AM 49.1050 3.1850 157° South 241 277 5,400 -1,322 Descending FlightAware ADS-B
Mon 04:59:25 AM 49.0770 3.1670 203° Southwest 228 262 4,700 -1,317 Descending FlightAware ADS-B
Mon 04:59:37 AM 49.0690 3.1520 231° Southwest 225 259 4,500 -833 Descending FlightAware ADS-B
Mon 05:00:01 AM 49.0550 3.1210 235° Southwest 218 251 4,200 -556 Descending FlightAware ADS-B
Mon 05:00:31 AM 49.0390 3.0840 237° Southwest 204 235 4,000 -316 Descending FlightAware ADS-B
Mon 05:00:58 AM 49.0250 3.0530 235° Southwest 183 211 3,900 -255 Descending FlightAware ADS-B
Mon 05:01:18 AM 49.0180 3.0320 243° Southwest 176 203 3,800 -286 Descending FlightAware ADS-B
Mon 05:01:40 AM 49.0150 3.0050 260° West 170 196 3,700 -115 Descending FlightAware ADS-B
Mon 05:02:10 AM 49.0140 2.9690 268° West 171 197 3,700 102 Level FlightAware ADS-B
Mon 05:02:39 AM 49.0120 2.9340 265° West 177 204 3,800  Climbing FlightAware ADS-B
Mon 05:02:54 AM 49.0110 2.9150 265° West 176 203 3,700 -140 Descending FlightAware ADS-B
Mon 05:03:22 AM 49.0090 2.8810 265° West 173 199 3,700 -429 Level FlightAware ADS-B
Mon 05:03:50 AM 49.0080 2.8480 267° West 167 192 3,300 -889 Descending FlightAware ADS-B
Mon 05:04:16 AM 49.0060 2.8190 264° West 157 181 2,900 -889 Descending FlightAware ADS-B
Mon 05:04:44 AM 49.0050 2.7880 267° West 150 173 2,500 -857 Descending FlightAware ADS-B
Mon 05:05:12 AM 49.0030 2.7580 264° West 150 173 2,100 -857 Descending FlightAware ADS-B
Mon 05:05:40 AM 49.0020 2.7290 267° West 150 173 1,700 -750 Descending FlightAware ADS-B
Mon 05:06:08 AM 49.0000 2.7000 264° West 144 166 1,400 -682 Descending FlightAware ADS-B
Mon 05:06:24 AM 48.9990 2.6850 264° West 134 154 1,200 -750 Descending FlightAware ADS-B
Mon 05:06:48 AM 48.9980 2.6620 266° West 131 151 900 -692 Descending FlightAware ADS-B
Mon 05:07:16 AM 48.9970 2.6390 266° West 130 150 600 -643 Descending FlightAware ADS-B
Mon 05:07:44 AM 48.9960 2.6170 266° West 126 145 300 -643 Descending FlightAware ADS-B
Mon 05:08:09 AM 48.9940 2.5930 263° West 126 145 -720 Descending FlightAware ADS-B
Mon 05:08:39 AM 48.9930 2.5740 265° West 69 79  Level FlightAware ADS-B
Mon 05:09:20 AM 48.9940 2.5670 282° West 15 17  Level FlightAware ADS-B
Mon 05:12:00 AM 49.0000 2.5333 127° Southeast  Level FlightAware Approximate
Mon 05:13:00 AM 49.0128 2.5500 127° Southeast  Level Estimated
Mon 05:14:00 AM 49.0128 2.5500 127° Southeast  Level Estimated
Mon 05:15:00 AM 49.0128 2.5500 127° Southeast  Level Estimated
Mon 05:16:00 AM 49.0128 2.5500 127° Southeast  Level Estimated
Mon 05:17:00 AM 49.0128 2.5500 127° Southeast  Level Estimated
Mon 05:18:00 AM 49.0128 2.5500 127° Southeast  Level Estimated
Mon 05:19:00 AM 49.0128 2.5500 127° Southeast  Level Estimated
Mon 05:20:00 AM 49.0128 2.5500 127° Southeast  Level Estimated
Mon 05:21:00 AM 49.0128 2.5500 127° Southeast  Level Estimated
Mon 05:22:00 AM 49.0128 2.5500 127° Southeast  Level Estimated
Mon 05:23:00 AM 49.0128 2.5500 127° Southeast  Level Estimated
Mon 05:24:00 AM 49.0128 2.5500 127° Southeast  Level Estimated

Login

Don't have an account? Register now (free) for customized features, flight alerts, and more!